Time;durP1;ratioP1;P1;durP2;ratioP2;P2;SDS_P1;SDS_P2;PMS_P1;PMS_P2;Temp;Humidity;BMP_temperature;BMP_pressure;BME280_temperature;BME280_humidity;BME280_pressure;Samples;Min_cycle;Max_cycle;Signal;HPM_P1;HPM_P2
2023/01/02 00:00:39;;;;;;;;;;;;;;;18.74;47.95;100854.66;4982005;27;124422;-65
2023/01/02 00:03:05;;;;;;;;;;;;;;;18.73;47.67;100855.00;4985445;27;113686;-68
2023/01/02 00:05:31;;;;;;;;;;;;;;;18.74;47.75;100848.41;4981673;27;128677;-68
2023/01/02 00:07:57;;;;;;;;;;;;;;;18.73;47.67;100844.88;4970361;27;99387;-65
2023/01/02 00:10:22;;;;;;;;;;;;;;;18.73;47.72;100838.63;4981257;27;111952;-69
2023/01/02 00:12:48;;;;;;;;;;;;;;;18.72;47.85;100840.53;4968907;27;113936;-69
2023/01/02 00:15:14;;;;;;;;;;;;;;;18.72;47.75;100835.09;4971358;27;99822;-69
2023/01/02 00:17:40;;;;;;;;;;;;;;;18.71;47.85;100827.22;4970510;27;119712;-68
2023/01/02 00:20:07;;;;;;;;;;;;;;;18.71;47.76;100827.22;4971002;27;126160;-69
2023/01/02 00:22:33;;;;;;;;;;;;;;;18.69;47.86;100829.41;4963373;27;102123;-65
2023/01/02 00:24:58;;;;;;;;;;;;;;;18.69;48.15;100818.47;4988871;27;106670;-69
2023/01/02 00:27:24;;;;;;;;;;;;;;;18.68;47.80;100828.59;4988672;27;104113;-69
2023/01/02 00:29:50;;;;;;;;;;;;;;;18.66;47.75;100817.19;4972161;27;124068;-65
2023/01/02 00:32:16;;;;;;;;;;;;;;;18.66;47.83;100811.72;4986032;27;127793;-69
2023/01/02 00:34:42;;;;;;;;;;;;;;;18.66;47.90;100811.72;4971678;27;124314;-68
2023/01/02 00:37:08;;;;;;;;;;;;;;;18.65;47.77;100804.66;4980906;27;118479;-65
2023/01/02 00:39:34;;;;;;;;;;;;;;;18.63;47.94;100802.25;4988712;27;98051;-68
2023/01/02 00:42:00;;;;;;;;;;;;;;;18.63;47.78;100802.25;4970897;27;118892;-69
2023/01/02 00:44:26;;;;;;;;;;;;;;;18.63;47.81;100804.19;4971073;27;127997;-65
2023/01/02 00:46:52;;;;;;;;;;;;;;;18.62;47.75;100797.09;5002964;27;102929;-69
2023/01/02 00:49:18;;;;;;;;;;;;;;;18.61;47.67;100803.66;4967853;27;127097;-69
2023/01/02 00:51:43;;;;;;;;;;;;;;;18.61;47.83;100787.28;4981746;27;100269;-68
2023/01/02 00:54:09;;;;;;;;;;;;;;;18.60;47.91;100794.69;4961573;27;127379;-68
2023/01/02 00:56:35;;;;;;;;;;;;;;;18.59;47.91;100787.63;4967278;27;115068;-68
2023/01/02 00:59:01;;;;;;;;;;;;;;;18.58;47.62;100783.25;4967125;27;117706;-67
2023/01/02 01:01:27;;;;;;;;;;;;;;;18.59;47.79;100778.63;4967810;27;99747;-65
2023/01/02 01:03:53;;;;;;;;;;;;;;;18.58;47.79;100777.00;4943498;27;124550;-68
2023/01/02 01:06:20;;;;;;;;;;;;;;;18.56;47.78;100776.50;4924235;27;98640;-68
2023/01/02 01:08:46;;;;;;;;;;;;;;;18.57;47.92;100775.38;4966688;27;97944;-69
2023/01/02 01:11:13;;;;;;;;;;;;;;;18.56;47.78;100784.69;4965874;27;118470;-65
2023/01/02 01:13:39;;;;;;;;;;;;;;;18.55;47.83;100772.16;4948085;27;112305;-68
2023/01/02 01:16:09;;;;;;;;;;;;;;;18.54;47.88;100768.63;4966622;27;98137;-69
2023/01/02 01:18:35;;;;;;;;;;;;;;;18.56;47.69;100771.06;4966611;27;110178;-69
2023/01/02 01:21:14;;;;;;;;;;;;;;;18.54;47.75;100773.28;4963509;27;98118;-70
2023/01/02 01:23:41;;;;;;;;;;;;;;;18.51;47.70;100763.81;4967613;27;98037;-68
2023/01/02 01:26:08;;;;;;;;;;;;;;;18.53;47.87;100775.19;4967822;27;102411;-69
2023/01/02 01:28:34;;;;;;;;;;;;;;;18.52;47.79;100765.41;4970144;27;103357;-65
2023/01/02 01:31:05;;;;;;;;;;;;;;;18.51;47.88;100760.25;4966230;27;119545;-65
2023/01/02 01:33:31;;;;;;;;;;;;;;;18.50;47.72;100767.63;4967358;27;98250;-65
2023/01/02 01:36:03;;;;;;;;;;;;;;;18.49;47.78;100759.78;4948817;27;98141;-68
2023/01/02 01:38:30;;;;;;;;;;;;;;;18.49;47.97;100759.78;4962314;27;107947;-69
2023/01/02 01:40:56;;;;;;;;;;;;;;;18.50;47.90;100758.66;4948035;27;111390;-67
2023/01/02 01:43:45;;;;;;;;;;;;;;;18.48;47.54;100761.69;4951065;27;127889;-65
2023/01/02 01:46:22;;;;;;;;;;;;;;;18.48;47.84;100758.97;4953263;27;97974;-69
2023/01/02 01:48:52;;;;;;;;;;;;;;;18.47;47.80;100757.38;4984392;27;98460;-68
2023/01/02 01:51:18;;;;;;;;;;;;;;;18.47;47.67;100759.28;4949108;27;128752;-66
2023/01/02 01:53:44;;;;;;;;;;;;;;;18.45;47.78;100759.59;4967932;27;98165;-69
2023/01/02 01:56:10;;;;;;;;;;;;;;;18.45;47.71;100756.84;4952802;27;98069;-69
2023/01/02 01:58:41;;;;;;;;;;;;;;;18.44;47.93;100749.81;4951678;27;99612;-65
2023/01/02 02:01:11;;;;;;;;;;;;;;;18.44;47.74;100749.81;4950314;27;97917;-68
2023/01/02 02:03:37;;;;;;;;;;;;;;;18.42;47.76;100752.03;4965352;27;99172;-65
2023/01/02 02:06:03;;;;;;;;;;;;;;;18.43;47.69;100748.19;4953306;27;98192;-69
2023/01/02 02:08:53;;;;;;;;;;;;;;;18.42;47.95;100738.38;4949237;27;129477;-65
2023/01/02 02:11:19;;;;;;;;;;;;;;;18.40;47.79;100733.25;4965239;27;97976;-65
2023/01/02 02:13:45;;;;;;;;;;;;;;;18.40;47.88;100743.34;4952512;27;130406;-65
2023/01/02 02:16:19;;;;;;;;;;;;;;;18.40;47.61;100741.44;4949597;27;97963;-68
2023/01/02 02:19:23;;;;;;;;;;;;;;;18.39;47.82;100736.28;4962723;27;99827;-65
2023/01/02 02:22:14;;;;;;;;;;;;;;;18.39;47.72;100728.09;4986231;27;98755;-68
2023/01/02 02:25:16;;;;;;;;;;;;;;;18.38;47.92;100735.47;4988082;27;98039;-65
2023/01/02 02:28:02;;;;;;;;;;;;;;;18.39;47.90;100725.34;4968967;27;99634;-65
2023/01/02 02:30:38;;;;;;;;;;;;;;;18.39;47.75;100723.47;4985737;27;100290;-67
2023/01/02 02:33:21;;;;;;;;;;;;;;;18.39;47.70;100709.81;4964171;27;98063;-67
2023/01/02 02:36:20;;;;;;;;;;;;;;;18.38;47.66;100713.63;4948552;27;98039;-69
2023/01/02 02:38:49;;;;;;;;;;;;;;;18.39;47.78;100714.44;4946127;27;100018;-68
2023/01/02 02:41:37;;;;;;;;;;;;;;;18.39;47.69;100715.28;4982715;27;98357;-69
2023/01/02 02:44:25;;;;;;;;;;;;;;;18.40;47.85;100705.16;4983548;27;99605;-68
2023/01/02 02:46:59;;;;;;;;;;;;;;;18.39;47.85;100704.34;4962362;27;101746;-69
2023/01/02 02:49:42;;;;;;;;;;;;;;;18.40;47.78;100699.69;4963401;27;98379;-65
2023/01/02 02:52:20;;;;;;;;;;;;;;;18.39;47.68;100698.91;4969438;27;99871;-69
2023/01/02 02:54:57;;;;;;;;;;;;;;;18.40;47.89;100697.78;4949379;27;117103;-65
2023/01/02 02:57:23;;;;;;;;;;;;;;;18.40;47.67;100689.59;4964609;27;97906;-65
2023/01/02 02:59:48;;;;;;;;;;;;;;;18.40;47.85;100689.59;4948709;27;109848;-65
2023/01/02 03:02:15;;;;;;;;;;;;;;;18.42;47.64;100688.47;4951402;27;128678;-69
2023/01/02 03:04:44;;;;;;;;;;;;;;;18.43;47.74;100687.31;4953983;27;103940;-69
2023/01/02 03:07:40;;;;;;;;;;;;;;;18.42;47.66;100683.00;4947733;27;112847;-68
2023/01/02 03:10:09;;;;;;;;;;;;;;;18.42;47.61;100686.53;4965525;27;105975;-65
2023/01/02 03:12:40;;;;;;;;;;;;;;;18.42;47.75;100681.06;4982340;27;98075;-68
2023/01/02 03:15:15;;;;;;;;;;;;;;;18.42;47.82;100683.81;4980410;27;98267;-67
2023/01/02 03:17:52;;;;;;;;;;;;;;;18.43;47.73;100682.69;4960834;27;116837;-65
2023/01/02 03:20:18;;;;;;;;;;;;;;;18.43;47.62;100679.13;4963212;27;112815;-69
2023/01/02 03:22:47;;;;;;;;;;;;;;;18.43;47.77;100687.31;4965208;27;98374;-65
2023/01/02 03:25:13;;;;;;;;;;;;;;;18.43;47.74;100679.97;4949904;27;106635;-65
2023/01/02 03:27:43;;;;;;;;;;;;;;;18.43;47.97;100682.69;4949046;27;99437;-65
2023/01/02 03:30:14;;;;;;;;;;;;;;;18.43;47.98;100668.22;4954841;27;97941;-65
2023/01/02 03:32:51;;;;;;;;;;;;;;;18.42;47.84;100661.97;4948442;27;99710;-65
2023/01/02 03:35:19;;;;;;;;;;;;;;;18.43;47.61;100666.31;4955481;27;97925;-67
2023/01/02 03:37:47;;;;;;;;;;;;;;;18.42;47.77;100670.16;4945272;27;116461;-68
2023/01/02 03:40:17;;;;;;;;;;;;;;;18.42;47.69;100663.91;4949540;27;99263;-65
2023/01/02 03:42:51;;;;;;;;;;;;;;;18.43;47.87;100663.59;4948043;27;98094;-69
2023/01/02 03:45:22;;;;;;;;;;;;;;;18.42;47.75;100670.16;4967287;27;100039;-67
2023/01/02 03:47:56;;;;;;;;;;;;;;;18.42;47.85;100672.88;4944821;27;108639;-65
2023/01/02 03:50:43;;;;;;;;;;;;;;;18.41;47.78;100663.09;4961639;27;99191;-64
2023/01/02 03:53:09;;;;;;;;;;;;;;;18.42;47.87;100663.91;4985824;27;113622;-68
2023/01/02 03:55:36;;;;;;;;;;;;;;;18.41;47.76;100663.09;4985010;27;128443;-65
2023/01/02 03:58:34;;;;;;;;;;;;;;;18.41;47.63;100665.81;4982641;27;99222;-65
2023/01/02 04:01:05;;;;;;;;;;;;;;;18.42;47.64;100669.34;4984378;27;98005;-68
2023/01/02 04:03:35;;;;;;;;;;;;;;;18.43;47.89;100660.03;4984786;27;115876;-65
2023/01/02 04:06:15;;;;;;;;;;;;;;;18.42;47.76;100652.97;4987244;27;103794;-65
2023/01/02 04:08:48;;;;;;;;;;;;;;;18.42;47.76;100664.69;4965888;27;98789;-65
2023/01/02 04:11:15;;;;;;;;;;;;;;;18.40;47.76;100654.09;4961889;27;98164;-65
2023/01/02 04:13:43;;;;;;;;;;;;;;;18.38;47.65;100659.06;4968046;27;98580;-65
2023/01/02 04:16:11;;;;;;;;;;;;;;;18.36;47.81;100646.88;4971829;27;107535;-68
2023/01/02 04:18:47;;;;;;;;;;;;;;;18.35;47.64;100650.69;4964776;27;98085;-68
2023/01/02 04:21:23;;;;;;;;;;;;;;;18.32;47.73;100649.44;4983000;27;107873;-68
2023/01/02 04:23:51;;;;;;;;;;;;;;;18.31;47.75;100653.28;4998253;27;116459;-67
2023/01/02 04:26:58;;;;;;;;;;;;;;;18.30;47.74;100656.31;4968564;27;98124;-68
2023/01/02 04:29:24;;;;;;;;;;;;;;;18.27;47.59;100649.53;4925651;28;98521;-65
2023/01/02 04:32:10;;;;;;;;;;;;;;;18.27;47.88;100649.53;4920129;28;98392;-65
2023/01/02 04:34:36;;;;;;;;;;;;;;;18.26;47.72;100655.31;4932677;27;98027;-65
2023/01/02 04:37:02;;;;;;;;;;;;;;;18.26;47.79;100656.13;4975558;27;97983;-69
2023/01/02 04:39:28;;;;;;;;;;;;;;;18.25;47.81;100651.00;4972625;27;118847;-65
2023/01/02 04:41:54;;;;;;;;;;;;;;;18.24;47.63;100655.66;5002823;27;109548;-69
2023/01/02 04:44:20;;;;;;;;;;;;;;;18.24;47.64;100663.03;4969585;27;98102;-68
2023/01/02 04:46:46;;;;;;;;;;;;;;;18.23;47.87;100658.66;4980977;27;98603;-69
2023/01/02 04:49:12;;;;;;;;;;;;;;;18.22;47.56;100666.06;4967147;27;117062;-69
2023/01/02 04:51:38;;;;;;;;;;;;;;;18.23;47.73;100666.84;4961420;27;118011;-66
2023/01/02 04:54:04;;;;;;;;;;;;;;;18.22;47.80;100659.78;4945340;27;100019;-66
2023/01/02 04:56:30;;;;;;;;;;;;;;;18.20;47.63;100653.88;4957114;27;118185;-64
2023/01/02 04:58:56;;;;;;;;;;;;;;;18.20;47.76;100660.13;4961207;27;98102;-69
2023/01/02 05:01:21;;;;;;;;;;;;;;;18.20;47.60;100662.84;4943925;27;98206;-69
2023/01/02 05:03:48;;;;;;;;;;;;;;;18.18;47.75;100662.34;4960001;27;127314;-68
2023/01/02 05:06:14;;;;;;;;;;;;;;;18.18;47.85;100667.81;4951507;27;99883;-69
2023/01/02 05:08:40;;;;;;;;;;;;;;;18.19;47.70;100671.34;4950382;27;100198;-68
2023/01/02 05:11:17;;;;;;;;;;;;;;;18.19;47.85;100665.88;4961441;27;98940;-68
2023/01/02 05:13:43;;;;;;;;;;;;;;;18.18;47.72;100672.47;4966185;27;115856;-69
2023/01/02 05:16:09;;;;;;;;;;;;;;;18.17;47.65;100666.19;4966674;27;100171;-69
2023/01/02 05:18:35;;;;;;;;;;;;;;;18.18;47.82;100680.63;4963095;27;113270;-65
2023/01/02 05:23:54;;;;;;;;;;;;;;;18.15;47.66;100676.59;4965646;27;98236;-69
2023/01/02 05:26:20;;;;;;;;;;;;;;;18.14;47.68;100680.47;4964070;27;97990;-68
2023/01/02 05:28:46;;;;;;;;;;;;;;;18.13;47.66;100678.84;4964265;27;126823;-65
2023/01/02 05:31:12;;;;;;;;;;;;;;;18.12;47.76;100678.06;4955915;27;116664;-65
2023/01/02 05:33:38;;;;;;;;;;;;;;;18.12;47.76;100675.31;4963212;27;98095;-65
2023/01/02 05:36:05;;;;;;;;;;;;;;;18.10;47.74;100674.81;4965672;27;98886;-65
2023/01/02 05:38:32;;;;;;;;;;;;;;;18.10;47.76;100668.56;4952011;27;99287;-68
2023/01/02 05:41:02;;;;;;;;;;;;;;;18.09;47.81;100667.75;4969032;27;98181;-65
2023/01/02 05:43:32;;;;;;;;;;;;;;;18.09;47.57;100664.22;4967739;27;98006;-65
2023/01/02 05:46:19;;;;;;;;;;;;;;;18.08;47.83;100663.44;4965307;27;98351;-69
2023/01/02 05:48:45;;;;;;;;;;;;;;;18.07;47.63;100659.06;4979464;27;98148;-65
2023/01/02 05:51:13;;;;;;;;;;;;;;;18.07;47.91;100666.44;4955350;27;98608;-65
2023/01/02 05:53:39;;;;;;;;;;;;;;;18.06;47.93;100664.84;4985272;27;99782;-65
2023/01/02 05:56:07;;;;;;;;;;;;;;;18.06;47.78;100667.56;4983791;27;127615;-65
2023/01/02 05:58:34;;;;;;;;;;;;;;;18.06;47.69;100659.41;5002631;27;98086;-68
2023/01/02 06:01:07;;;;;;;;;;;;;;;18.04;47.80;100662.44;4985045;27;98061;-65
2023/01/02 06:03:33;;;;;;;;;;;;;;;18.03;47.68;100658.09;4986827;27;99879;-65
2023/01/02 06:06:07;;;;;;;;;;;;;;;18.04;47.75;100653.47;4985025;27;104181;-65
2023/01/02 06:08:33;;;;;;;;;;;;;;;18.03;47.87;100652.63;4971071;27;98084;-65
2023/01/02 06:11:00;;;;;;;;;;;;;;;18.02;47.73;100655.69;4986122;27;98030;-65
2023/01/02 06:13:28;;;;;;;;;;;;;;;18.02;47.89;100658.41;4969315;27;102375;-65
2023/01/02 06:15:54;;;;;;;;;;;;;;;18.01;47.65;100659.53;4985899;27;116887;-67
2023/01/02 06:18:20;;;;;;;;;;;;;;;18.01;47.97;100654.09;4968632;27;98008;-68
2023/01/02 06:20:46;;;;;;;;;;;;;;;18.00;47.85;100660.63;5001430;27;97859;-68
2023/01/02 06:23:12;;;;;;;;;;;;;;;17.99;47.84;100659.84;4967770;27;131866;-68
2023/01/02 06:25:38;;;;;;;;;;;;;;;17.99;47.80;100659.84;4973013;27;99974;-68
2023/01/02 06:28:04;;;;;;;;;;;;;;;17.98;47.71;100652.78;4986232;27;98110;-68
2023/01/02 06:30:30;;;;;;;;;;;;;;;17.99;47.88;100657.09;4964775;27;116322;-65
2023/01/02 06:32:56;;;;;;;;;;;;;;;17.99;47.76;100664.50;4982869;27;110804;-65
2023/01/02 06:35:22;;;;;;;;;;;;;;;17.99;47.82;100662.56;5002672;27;120850;-65
2023/01/02 06:37:48;;;;;;;;;;;;;;;17.99;47.74;100664.50;4971492;27;98057;-68
2023/01/02 06:40:14;;;;;;;;;;;;;;;18.00;47.62;100666.09;4983456;27;116990;-65
2023/01/02 06:42:43;;;;;;;;;;;;;;;17.99;47.70;100662.56;4966818;27;120393;-65
2023/01/02 06:45:09;;;;;;;;;;;;;;;17.99;47.73;100657.09;4984664;27;97926;-69
2023/01/02 06:47:35;;;;;;;;;;;;;;;18.00;47.70;100649.72;4964105;27;123457;-68
2023/01/02 06:50:01;;;;;;;;;;;;;;;17.99;47.90;100659.84;4965385;27;99144;-66
2023/01/02 06:52:27;;;;;;;;;;;;;;;17.99;47.69;100659.84;4948882;27;129075;-69
2023/01/02 06:54:53;;;;;;;;;;;;;;;17.99;47.75;100668.00;4961991;27;124914;-69
2023/01/02 06:57:19;;;;;;;;;;;;;;;17.99;47.85;100665.28;4960531;27;116801;-65
2023/01/02 06:59:45;;;;;;;;;;;;;;;17.98;47.83;100668.34;4961752;27;117436;-69
2023/01/02 07:02:11;;;;;;;;;;;;;;;17.98;47.77;100669.13;4943324;27;125275;-65
2023/01/02 07:04:37;;;;;;;;;;;;;;;17.98;47.57;100660.97;4973067;27;113416;-65
2023/01/02 07:07:03;;;;;;;;;;;;;;;17.98;47.78;100662.88;4961611;27;117114;-68
2023/01/02 07:09:29;;;;;;;;;;;;;;;17.98;47.72;100660.97;4961693;27;98351;-65
2023/01/02 07:11:56;;;;;;;;;;;;;;;17.97;47.67;100656.63;4942159;27;112435;-69
2023/01/02 07:14:21;;;;;;;;;;;;;;;17.98;47.70;100662.88;4960352;27;98271;-69
2023/01/02 07:16:47;;;;;;;;;;;;;;;17.97;47.83;100666.72;4975114;27;125193;-68
2023/01/02 07:19:13;;;;;;;;;;;;;;;17.97;47.71;100664.00;4941691;27;116860;-65
2023/01/02 07:21:39;;;;;;;;;;;;;;;17.98;47.75;100662.88;4957800;27;107504;-68
2023/01/02 07:24:06;;;;;;;;;;;;;;;17.98;47.76;100676.50;4990123;27;116911;-69
2023/01/02 07:26:31;;;;;;;;;;;;;;;17.97;47.65;100678.44;4961897;27;99334;-69
2023/01/02 07:28:57;;;;;;;;;;;;;;;17.99;47.69;100678.13;4974209;27;119982;-65
2023/01/02 07:31:23;;;;;;;;;;;;;;;17.99;47.76;100684.38;4944717;27;128556;-68
2023/01/02 07:33:49;;;;;;;;;;;;;;;18.02;47.52;100674.78;4976217;27;98690;-68
2023/01/02 07:36:17;;;;;;;;;;;;;;;18.03;47.61;100669.00;4956035;27;123691;-68
2023/01/02 07:38:42;;;;;;;;;;;;;;;18.05;47.59;100672.22;4975291;27;98478;-68
2023/01/02 07:41:16;;;;;;;;;;;;;;;18.05;47.55;100680.41;4977969;27;118670;-68
2023/01/02 07:43:42;;;;;;;;;;;;;;;18.05;47.65;100690.53;4956278;27;98907;-65
2023/01/02 07:46:08;;;;;;;;;;;;;;;18.06;47.51;100681.22;4973829;27;98515;-68
2023/01/02 07:48:34;;;;;;;;;;;;;;;18.07;47.67;100686.34;4959808;27;116313;-69
2023/01/02 07:51:01;;;;;;;;;;;;;;;18.11;47.61;100684.59;4941296;27;128583;-69
2023/01/02 07:53:27;;;;;;;;;;;;;;;18.12;47.43;100683.50;4996255;27;100385;-70
2023/01/02 07:55:54;;;;;;;;;;;;;;;18.15;47.32;100692.97;4979486;27;99721;-68
2023/01/02 07:58:20;;;;;;;;;;;;;;;18.22;47.55;100695.25;4978656;27;98200;-65
2023/01/02 08:00:46;;;;;;;;;;;;;;;18.30;47.27;100705.41;4963816;27;128178;-68
2023/01/02 08:03:12;;;;;;;;;;;;;;;18.38;47.19;100697.25;4980499;27;98279;-65
2023/01/02 08:05:38;;;;;;;;;;;;;;;18.46;47.26;100706.63;4996986;27;98295;-68
2023/01/02 08:08:04;;;;;;;;;;;;;;;18.50;47.16;100698.59;4979042;27;120163;-65
2023/01/02 08:10:30;;;;;;;;;;;;;;;18.50;47.29;100702.13;4960778;27;98004;-65
2023/01/02 08:12:56;;;;;;;;;;;;;;;18.50;47.20;100695.88;4978061;27;127832;-65
2023/01/02 08:15:23;;;;;;;;;;;;;;;18.48;47.41;100704.38;4962147;27;98323;-70
2023/01/02 08:17:49;;;;;;;;;;;;;;;18.50;47.31;100706.78;4981795;27;98323;-68
2023/01/02 08:20:15;;;;;;;;;;;;;;;18.55;47.41;100715.66;4967644;27;121294;-65
2023/01/02 08:22:41;;;;;;;;;;;;;;;18.61;47.40;100717.13;4964469;27;99825;-68
2023/01/02 08:25:08;;;;;;;;;;;;;;;18.67;47.43;100720.53;4981206;27;102159;-65
2023/01/02 08:27:34;;;;;;;;;;;;;;;18.73;47.30;100718.47;4980801;27;101964;-65
2023/01/02 08:30:00;;;;;;;;;;;;;;;18.77;47.32;100728.44;4978565;27;130042;-65
2023/01/02 08:32:26;;;;;;;;;;;;;;;18.80;47.29;100716.91;4981283;27;98419;-65
2023/01/02 08:34:52;;;;;;;;;;;;;;;18.85;47.28;100724.13;4979676;27;99935;-66
2023/01/02 08:37:17;;;;;;;;;;;;;;;18.88;47.46;100723.50;4959616;27;116551;-69
2023/01/02 08:39:43;;;;;;;;;;;;;;;18.93;47.41;100737.00;4978827;27;126584;-66
2023/01/02 08:42:09;;;;;;;;;;;;;;;18.98;47.42;100738.78;4982410;27;126853;-68
2023/01/02 08:44:36;;;;;;;;;;;;;;;19.03;47.18;100744.13;4965504;27;99360;-65
2023/01/02 08:47:03;;;;;;;;;;;;;;;19.08;47.27;100736.56;4982731;27;98198;-66
2023/01/02 08:49:29;;;;;;;;;;;;;;;19.14;47.38;100739.97;4979026;27;127847;-69
2023/01/02 08:51:55;;;;;;;;;;;;;;;19.19;47.32;100741.75;4960620;27;128733;-65
2023/01/02 08:54:21;;;;;;;;;;;;;;;19.24;47.16;100733.41;4962882;27;126226;-69
2023/01/02 08:56:47;;;;;;;;;;;;;;;19.28;47.32;100732.44;4963188;27;117063;-69
2023/01/02 08:59:13;;;;;;;;;;;;;;;19.31;47.04;100728.28;4979587;27;98036;-66
2023/01/02 09:01:39;;;;;;;;;;;;;;;19.32;47.22;100736.13;4948390;27;98273;-65
2023/01/02 09:04:06;;;;;;;;;;;;;;;19.34;47.16;100733.91;4980110;27;110364;-69
2023/01/02 09:06:33;;;;;;;;;;;;;;;19.36;47.11;100733.56;4948960;27;99333;-66
2023/01/02 09:08:59;;;;;;;;;;;;;;;19.37;47.29;100729.72;4961772;27;99775;-68
2023/01/02 09:11:26;;;;;;;;;;;;;;;19.39;47.18;100730.19;4963178;27;120241;-69
2023/01/02 09:13:52;;;;;;;;;;;;;;;19.43;47.24;100730.38;4960663;27;98019;-66
2023/01/02 09:16:18;;;;;;;;;;;;;;;19.44;47.12;100723.78;4947911;27;99448;-69
2023/01/02 09:18:44;;;;;;;;;;;;;;;19.44;47.22;100724.56;4963303;27;99777;-68
2023/01/02 09:21:10;;;;;;;;;;;;;;;19.46;47.21;100727.00;4948588;27;99630;-68
2023/01/02 09:23:36;;;;;;;;;;;;;;;19.49;47.06;100727.16;4961486;27;118442;-65
2023/01/02 09:26:03;;;;;;;;;;;;;;;19.58;46.97;100738.09;4964247;27;99490;-70
2023/01/02 09:28:30;;;;;;;;;;;;;;;19.67;46.95;100735.41;4948296;27;118782;-68
2023/01/02 09:30:56;;;;;;;;;;;;;;;19.75;46.79;100743.59;4963761;27;110082;-69
2023/01/02 09:33:22;;;;;;;;;;;;;;;19.80;46.78;100735.22;4979050;27;111550;-66
2023/01/02 09:35:47;;;;;;;;;;;;;;;19.87;46.88;100742.94;4947463;27;98287;-69
2023/01/02 09:38:13;;;;;;;;;;;;;;;19.94;46.57;100737.78;4947102;27;106594;-69
2023/01/02 09:40:47;;;;;;;;;;;;;;;20.00;46.75;100741.16;4963011;27;105129;-68
2023/01/02 09:43:14;;;;;;;;;;;;;;;20.04;46.73;100739.38;4946989;27;118524;-69
2023/01/02 09:45:40;;;;;;;;;;;;;;;20.05;46.81;100739.06;4944369;27;104817;-65
2023/01/02 09:48:07;;;;;;;;;;;;;;;20.06;46.86;100737.13;4962649;27;110662;-65
2023/01/02 09:50:33;;;;;;;;;;;;;;;20.06;46.80;100731.66;4945397;27;124374;-69
2023/01/02 09:52:59;;;;;;;;;;;;;;;20.03;46.98;100748.72;4965940;27;119452;-66
2023/01/02 09:55:54;;;;;;;;;;;;;;;19.99;46.98;100745.81;4978144;27;115572;-66
2023/01/02 09:58:38;;;;;;;;;;;;;;;19.96;46.96;100742.94;4989438;27;98061;-66
2023/01/02 10:01:05;;;;;;;;;;;;;;;19.96;46.97;100740.19;5003172;27;99487;-70
2023/01/02 10:03:48;;;;;;;;;;;;;;;19.95;46.93;100731.19;4968292;27;98892;-66
2023/01/02 10:06:25;;;;;;;;;;;;;;;19.96;46.99;100735.53;4964148;27;98353;-69
2023/01/02 10:09:11;;;;;;;;;;;;;;;19.99;46.90;100736.81;4979177;27;98196;-66
2023/01/02 10:11:42;;;;;;;;;;;;;;;20.03;46.93;100740.50;4965315;27;99472;-69
2023/01/02 10:14:14;;;;;;;;;;;;;;;20.11;46.91;100736.94;4992446;27;98274;-70
2023/01/02 10:16:43;;;;;;;;;;;;;;;20.21;46.75;100728.41;5000376;27;98645;-69
2023/01/02 10:19:15;;;;;;;;;;;;;;;20.31;46.54;100725.31;4982634;27;119728;-69
2023/01/02 10:21:41;;;;;;;;;;;;;;;20.41;46.58;100712.41;4968637;27;98274;-66
2023/01/02 10:24:19;;;;;;;;;;;;;;;20.48;46.44;100718.19;4967266;27;98026;-68
2023/01/02 10:26:51;;;;;;;;;;;;;;;20.54;46.61;100723.19;4969936;27;97919;-69
2023/01/02 10:29:27;;;;;;;;;;;;;;;20.59;46.54;100742.19;4982301;27;98343;-66
2023/01/02 10:31:59;;;;;;;;;;;;;;;20.62;46.55;100729.75;4985604;27;98118;-70
2023/01/02 10:34:27;;;;;;;;;;;;;;;20.62;46.77;100731.69;4983953;27;98319;-69
2023/01/02 10:36:53;;;;;;;;;;;;;;;20.61;46.62;100728.16;4965523;27;98090;-69
2023/01/02 10:39:21;;;;;;;;;;;;;;;20.61;46.66;100721.88;4983593;27;122839;-68
2023/01/02 10:41:50;;;;;;;;;;;;;;;20.58;46.71;100718.66;4966991;27;99412;-68
2023/01/02 10:44:24;;;;;;;;;;;;;;;20.56;46.89;100728.34;4979980;27;98238;-66
2023/01/02 10:46:50;;;;;;;;;;;;;;;20.54;46.83;100714.16;4982092;27;102592;-69
2023/01/02 10:49:16;;;;;;;;;;;;;;;20.53;46.82;100718.84;4980248;27;98721;-69
2023/01/02 10:51:44;;;;;;;;;;;;;;;20.50;46.90;100708.53;4959063;27;126568;-69
2023/01/02 10:54:10;;;;;;;;;;;;;;;20.51;46.77;100695.66;4962590;27;98003;-69
2023/01/02 10:56:37;;;;;;;;;;;;;;;20.53;46.89;100688.72;4960349;27;116921;-68
2023/01/02 10:59:03;;;;;;;;;;;;;;;20.61;46.74;100691.75;4961730;27;99631;-68
2023/01/02 11:01:29;;;;;;;;;;;;;;;20.68;46.71;100698.31;4960655;27;122586;-65
2023/01/02 11:03:57;;;;;;;;;;;;;;;20.74;46.58;100680.56;4958675;27;109077;-66
2023/01/02 11:06:27;;;;;;;;;;;;;;;20.79;46.61;100676.84;4980730;27;98097;-68
2023/01/02 11:08:58;;;;;;;;;;;;;;;20.83;46.63;100688.75;4961156;27;100082;-67
2023/01/02 11:11:25;;;;;;;;;;;;;;;20.86;46.36;100671.63;4964214;27;115222;-69
2023/01/02 11:13:54;;;;;;;;;;;;;;;20.89;46.39;100678.41;4945183;27;105520;-69
2023/01/02 11:16:23;;;;;;;;;;;;;;;20.93;46.58;100680.13;4946921;27;98180;-69
2023/01/02 11:18:54;;;;;;;;;;;;;;;20.92;46.73;100680.47;4963211;27;98213;-66
2023/01/02 11:21:34;;;;;;;;;;;;;;;20.89;46.71;100675.66;4964211;27;104318;-68
2023/01/02 11:24:02;;;;;;;;;;;;;;;20.86;46.67;100668.88;4946603;27;99022;-66
2023/01/02 11:26:28;;;;;;;;;;;;;;;20.86;46.74;100682.59;4963727;27;97914;-66
2023/01/02 11:28:54;;;;;;;;;;;;;;;20.87;46.81;100669.69;4943294;27;116935;-66
2023/01/02 11:31:20;;;;;;;;;;;;;;;20.88;46.73;100665.84;4947884;27;98123;-66
2023/01/02 11:33:46;;;;;;;;;;;;;;;20.88;46.63;100663.91;4947786;27;126995;-69
2023/01/02 11:36:12;;;;;;;;;;;;;;;20.89;46.69;100672.91;4948060;27;108999;-69
2023/01/02 11:38:47;;;;;;;;;;;;;;;20.90;46.79;100678.06;4980423;27;98427;-69
2023/01/02 11:44:51;;;;;;;;;;;;;;;20.92;46.79;100677.75;4971102;27;99049;-69
2023/01/02 11:47:17;;;;;;;;;;;;;;;20.92;46.78;100686.75;4971502;27;99549;-70
2023/01/02 11:49:50;;;;;;;;;;;;;;;20.92;46.76;100691.44;4944763;27;110255;-70
2023/01/02 11:52:20;;;;;;;;;;;;;;;20.90;46.79;100690.94;4955894;27;98403;-69
2023/01/02 11:54:54;;;;;;;;;;;;;;;20.86;46.74;100692.75;4986112;27;98308;-66
2023/01/02 11:57:48;;;;;;;;;;;;;;;20.83;46.81;100684.06;4963854;27;98244;-66
2023/01/02 12:00:16;;;;;;;;;;;;;;;20.83;46.91;100686.00;4978376;27;100347;-66
2023/01/02 12:02:44;;;;;;;;;;;;;;;20.84;46.85;100682.94;4965912;27;98029;-66
2023/01/02 12:05:15;;;;;;;;;;;;;;;20.82;46.81;100685.19;4966640;27;99259;-70
2023/01/02 12:07:58;;;;;;;;;;;;;;;20.82;46.81;100682.44;4961051;27;97919;-69
2023/01/02 12:10:49;;;;;;;;;;;;;;;20.84;46.88;100693.09;4981254;27;98408;-68
2023/01/02 12:13:41;;;;;;;;;;;;;;;20.86;46.84;100696.28;4977665;27;100336;-69
2023/01/02 12:16:47;;;;;;;;;;;;;;;20.90;46.76;100691.75;5000716;27;98088;-69
2023/01/02 12:19:54;;;;;;;;;;;;;;;20.94;46.63;100687.22;4913467;28;98653;-68
2023/01/02 12:22:31;;;;;;;;;;;;;;;20.97;46.71;100689.28;5000963;27;97951;-66
2023/01/02 12:25:12;;;;;;;;;;;;;;;20.99;46.71;100686.25;4982373;27;112887;-68
2023/01/02 12:28:00;;;;;;;;;;;;;;;20.99;46.78;100678.03;5001982;27;98346;-66
2023/01/02 12:30:26;;;;;;;;;;;;;;;20.98;46.72;100685.41;4987013;27;98285;-67
2023/01/02 12:33:04;;;;;;;;;;;;;;;20.96;46.69;100675.94;4989140;27;128559;-66
2023/01/02 12:35:45;;;;;;;;;;;;;;;20.94;46.85;100676.25;4998996;27;98141;-66
2023/01/02 12:38:30;;;;;;;;;;;;;;;20.92;46.85;100675.00;5000524;27;98192;-70
2023/01/02 12:41:09;;;;;;;;;;;;;;;20.92;46.89;100664.84;4983639;27;98112;-69
2023/01/02 12:43:54;;;;;;;;;;;;;;;20.90;46.92;100664.34;4966645;27;98320;-68
2023/01/02 12:46:57;;;;;;;;;;;;;;;20.93;46.88;100665.63;4999253;27;98961;-68
2023/01/02 12:49:42;;;;;;;;;;;;;;;20.92;46.80;100670.31;4999579;27;98223;-66
2023/01/02 12:52:19;;;;;;;;;;;;;;;20.90;46.83;100675.31;5003242;27;98926;-69
2023/01/02 12:55:01;;;;;;;;;;;;;;;20.88;47.02;100674.84;4994857;27;117461;-69